Terminal Aerodrome Forecast
Issued by NWS Cleveland, OH

Home | Current Version | Previous Version | Text Only | Print | Product List | Glossary Off
Versions: 1 2 3 4 5 6 7 8 9 10 11 12 13 14 15 16 17

654
FTUS41 KCLE 281122
TAFCAK
TAF
KCAK 281122Z 2812/2912 22004KT P6SM SCT150
     FM281600 20007KT P6SM BKN150
     FM290600 14007KT 5SM -SHRA OVC025
     FM290900 22007KT 5SM -SHRA OVC007=

USA.gov is the U.S. government's official web portal to all federal, state and local government web resources and services.